Time;durP1;ratioP1;P1;durP2;ratioP2;P2;SDS_P1;SDS_P2;PMS_P1;PMS_P2;Temp;Humidity;BMP_temperature;BMP_pressure;BME280_temperature;BME280_humidity;BME280_pressure;Samples;Min_cycle;Max_cycle;Signal;HPM_P1;HPM_P2
2023/05/08 00:00:29;;;;;;;13.25;7.55;;;14.70;99.90;;;;;;5024905;28;20487;-65
2023/05/08 00:02:55;;;;;;;11.63;8.20;;;14.80;99.90;;;;;;5022561;28;20092;-64
2023/05/08 00:05:20;;;;;;;13.90;8.63;;;14.80;99.90;;;;;;5023617;28;20033;-64
2023/05/08 00:07:46;;;;;;;21.40;10.00;;;14.80;99.90;;;;;;5022175;28;20033;-64
2023/05/08 00:10:12;;;;;;;12.07;8.23;;;14.70;99.90;;;;;;5022729;28;20026;-64
2023/05/08 00:12:37;;;;;;;10.88;7.18;;;14.70;99.90;;;;;;5020487;28;20348;-64
2023/05/08 00:15:04;;;;;;;15.10;7.90;;;14.70;99.90;;;;;;5020648;28;20037;-64
2023/05/08 00:17:30;;;;;;;12.43;7.15;;;14.60;99.90;;;;;;5019124;28;20509;-63
2023/05/08 00:19:55;;;;;;;9.95;6.68;;;14.60;99.90;;;;;;5004357;28;20058;-65
2023/05/08 00:22:22;;;;;;;10.02;5.53;;;14.60;99.90;;;;;;5028170;28;20056;-64
2023/05/08 00:24:47;;;;;;;7.05;5.32;;;14.60;99.90;;;;;;5022556;28;20101;-65
2023/05/08 00:27:13;;;;;;;7.13;5.20;;;14.50;99.90;;;;;;5023428;28;20093;-64
2023/05/08 00:29:39;;;;;;;9.02;4.57;;;14.50;99.90;;;;;;5023622;28;20057;-64
2023/05/08 00:32:05;;;;;;;7.25;4.75;;;14.50;99.90;;;;;;5025083;28;20029;-64
2023/05/08 00:34:31;;;;;;;7.28;4.68;;;14.40;99.90;;;;;;5023806;28;20108;-64
2023/05/08 00:36:57;;;;;;;7.10;4.28;;;14.40;99.90;;;;;;5019533;28;20120;-65
2023/05/08 00:39:22;;;;;;;6.63;4.38;;;14.50;99.90;;;;;;5022710;28;20049;-64
2023/05/08 00:41:48;;;;;;;6.78;4.93;;;14.40;99.90;;;;;;5045040;23;20083;-65
2023/05/08 00:44:13;;;;;;;8.82;4.38;;;14.40;99.90;;;;;;5030315;28;20471;-66
2023/05/08 00:46:40;;;;;;;9.23;5.22;;;14.40;99.90;;;;;;5029059;28;20021;-66
2023/05/08 00:49:09;;;;;;;7.75;5.20;;;14.40;99.90;;;;;;5013363;28;20116;-66
2023/05/08 00:51:35;;;;;;;7.03;5.18;;;14.40;99.90;;;;;;5023901;28;20036;-66
2023/05/08 00:54:00;;;;;;;11.25;5.20;;;14.30;99.90;;;;;;4999541;28;20029;-66
2023/05/08 00:56:28;;;;;;;8.15;5.10;;;14.40;99.90;;;;;;5003221;28;20053;-66
2023/05/08 00:58:54;;;;;;;11.27;5.63;;;14.40;99.90;;;;;;5009941;28;20033;-67
2023/05/08 01:01:19;;;;;;;10.32;5.65;;;14.40;99.90;;;;;;5028086;28;20036;-66
2023/05/08 01:03:46;;;;;;;8.63;5.13;;;14.40;99.90;;;;;;5022068;28;20100;-66
2023/05/08 01:06:11;;;;;;;8.60;5.82;;;14.30;99.90;;;;;;5020540;28;20022;-66
2023/05/08 01:08:37;;;;;;;8.90;5.38;;;14.40;99.90;;;;;;5028495;28;20052;-67
2023/05/08 01:11:07;;;;;;;10.95;5.60;;;14.30;99.90;;;;;;5029623;28;20105;-67
2023/05/08 01:14:07;;;;;;;7.78;5.43;;;14.30;99.90;;;;;;5027954;28;20391;-66
2023/05/08 01:16:53;;;;;;;8.95;5.72;;;14.30;99.90;;;;;;5028226;28;20034;-66
2023/05/08 01:19:34;;;;;;;10.75;6.13;;;14.40;99.90;;;;;;5028629;28;20029;-66
2023/05/08 01:22:10;;;;;;;8.23;5.47;;;14.30;99.90;;;;;;5023395;28;20207;-66
2023/05/08 01:25:03;;;;;;;9.50;5.93;;;14.30;99.90;;;;;;5004681;28;20510;-66
2023/05/08 01:27:49;;;;;;;10.20;6.53;;;14.30;99.90;;;;;;5026457;28;20475;-66
2023/05/08 01:30:45;;;;;;;10.07;6.10;;;14.30;99.90;;;;;;5028664;28;20021;-67
2023/05/08 01:33:45;;;;;;;9.98;5.25;;;14.30;99.90;;;;;;5010372;28;20033;-69
2023/05/08 01:36:24;;;;;;;8.50;6.45;;;14.20;99.90;;;;;;5024131;28;20484;-66
2023/05/08 01:38:58;;;;;;;9.77;5.78;;;14.20;99.90;;;;;;5027432;28;20064;-65
2023/05/08 01:41:27;;;;;;;9.90;6.43;;;14.20;99.90;;;;;;5018873;28;20155;-63
2023/05/08 01:44:15;;;;;;;9.35;6.32;;;14.20;99.90;;;;;;5023177;28;20446;-66
2023/05/08 01:46:44;;;;;;;14.52;6.20;;;14.20;99.90;;;;;;5024037;28;20033;-67
2023/05/08 01:49:13;;;;;;;9.88;6.13;;;14.10;99.90;;;;;;5025588;28;20498;-66
2023/05/08 01:51:44;;;;;;;11.57;6.85;;;14.10;99.90;;;;;;5016074;28;20038;-67
2023/05/08 01:54:15;;;;;;;13.90;6.53;;;14.10;99.90;;;;;;5024231;28;20032;-68
2023/05/08 01:56:44;;;;;;;11.43;6.03;;;14.10;99.90;;;;;;5014607;28;20581;-67
2023/05/08 01:59:13;;;;;;;9.02;6.40;;;14.10;99.90;;;;;;5029158;28;20036;-68
2023/05/08 02:01:40;;;;;;;9.43;6.70;;;14.10;99.90;;;;;;5029481;28;20044;-67
2023/05/08 02:04:07;;;;;;;8.98;6.03;;;14.10;99.90;;;;;;5025338;28;20018;-66
2023/05/08 02:06:35;;;;;;;11.07;5.35;;;14.10;99.90;;;;;;5031566;28;20723;-66
2023/05/08 02:09:01;;;;;;;9.80;6.55;;;14.10;99.90;;;;;;5031250;28;20113;-66
2023/05/08 02:11:28;;;;;;;13.05;6.93;;;14.10;99.90;;;;;;5031974;28;20108;-64
2023/05/08 02:13:56;;;;;;;8.75;6.50;;;14.10;99.90;;;;;;5031482;28;20056;-65
2023/05/08 02:16:23;;;;;;;12.20;8.18;;;14.10;99.90;;;;;;5033408;28;20033;-65
2023/05/08 02:18:52;;;;;;;10.73;7.32;;;14.00;99.90;;;;;;5031125;28;20033;-67
2023/05/08 02:21:19;;;;;;;10.50;7.05;;;14.10;99.90;;;;;;5034505;28;20036;-67
2023/05/08 02:23:46;;;;;;;10.48;6.97;;;14.00;99.90;;;;;;5032034;28;20033;-66
2023/05/08 02:26:14;;;;;;;10.45;7.93;;;14.00;99.90;;;;;;5029777;28;20030;-66
2023/05/08 02:28:41;;;;;;;11.65;7.55;;;14.00;99.90;;;;;;5021479;28;20029;-68
2023/05/08 02:31:09;;;;;;;12.85;8.68;;;14.00;99.90;;;;;;5019839;28;20063;-66
2023/05/08 02:33:37;;;;;;;12.65;8.90;;;14.00;99.90;;;;;;5026522;28;20022;-66
2023/05/08 02:36:03;;;;;;;14.88;9.35;;;13.90;99.90;;;;;;5020426;28;20037;-66
2023/05/08 02:38:31;;;;;;;12.35;8.80;;;13.90;99.90;;;;;;5024927;28;20549;-68
2023/05/08 02:41:00;;;;;;;12.77;8.82;;;13.90;99.90;;;;;;5026152;28;20057;-66
2023/05/08 02:43:26;;;;;;;18.13;8.88;;;13.90;99.90;;;;;;5029805;28;20014;-66
2023/05/08 02:46:13;;;;;;;12.90;8.40;;;13.90;99.90;;;;;;5031325;28;20388;-67
2023/05/08 02:49:06;;;;;;;14.20;9.40;;;13.90;99.90;;;;;;5023952;28;20056;-66
2023/05/08 02:51:54;;;;;;;14.10;8.80;;;13.90;99.90;;;;;;5029641;28;20083;-66
2023/05/08 02:54:45;;;;;;;10.90;7.80;;;13.80;99.90;;;;;;5027638;28;20025;-67
2023/05/08 02:57:27;;;;;;;15.38;9.63;;;13.80;99.90;;;;;;5014392;28;20228;-67
2023/05/08 03:00:06;;;;;;;12.38;8.05;;;13.80;99.90;;;;;;5027053;28;20496;-67
2023/05/08 03:02:39;;;;;;;15.68;9.10;;;13.80;99.90;;;;;;5025231;28;20025;-68
2023/05/08 03:05:46;;;;;;;11.63;7.60;;;13.80;99.90;;;;;;5030677;28;20514;-67
2023/05/08 03:08:19;;;;;;;12.98;8.88;;;13.80;99.90;;;;;;4970104;28;20489;-65
2023/05/08 03:10:48;;;;;;;12.53;8.00;;;13.80;99.90;;;;;;4970327;28;20034;-66
2023/05/08 03:13:17;;;;;;;14.50;9.02;;;13.80;99.90;;;;;;5004006;28;20049;-67
2023/05/08 03:15:57;;;;;;;14.75;8.73;;;13.70;99.90;;;;;;5030689;28;20048;-66
2023/05/08 03:18:29;;;;;;;16.58;9.10;;;13.70;99.90;;;;;;5027399;28;20442;-66
2023/05/08 03:20:58;;;;;;;18.63;10.18;;;13.70;99.90;;;;;;5017162;28;20250;-66
2023/05/08 03:23:27;;;;;;;15.88;9.45;;;13.70;99.90;;;;;;5024476;28;20090;-67
2023/05/08 03:25:53;;;;;;;15.38;9.23;;;13.60;99.90;;;;;;5029596;28;20025;-65
2023/05/08 03:28:20;;;;;;;15.65;9.80;;;13.60;99.90;;;;;;5023689;28;20028;-67
2023/05/08 03:30:48;;;;;;;13.48;9.23;;;13.60;99.90;;;;;;5027901;28;20030;-67
2023/05/08 03:33:14;;;;;;;14.13;9.73;;;13.50;99.90;;;;;;5026186;28;20040;-67
2023/05/08 03:35:41;;;;;;;13.63;9.82;;;13.60;99.90;;;;;;5031287;28;20021;-67
2023/05/08 03:38:07;;;;;;;12.27;9.00;;;13.50;99.90;;;;;;5028395;28;20037;-65
2023/05/08 03:40:43;;;;;;;16.00;9.60;;;13.60;99.90;;;;;;5027710;28;20034;-67
2023/05/08 03:43:10;;;;;;;18.05;9.55;;;13.60;99.90;;;;;;5025122;28;20391;-67
2023/05/08 03:45:39;;;;;;;15.18;10.25;;;13.50;99.90;;;;;;5030498;28;20116;-67
2023/05/08 03:48:06;;;;;;;14.35;9.82;;;13.50;99.90;;;;;;5028046;28;20037;-65
2023/05/08 03:50:35;;;;;;;16.90;11.35;;;13.50;99.90;;;;;;5030110;28;20032;-65
2023/05/08 03:53:01;;;;;;;16.10;10.20;;;13.50;99.90;;;;;;5023340;28;20068;-66
2023/05/08 03:55:28;;;;;;;20.52;11.50;;;13.50;99.90;;;;;;5008821;28;20046;-67
2023/05/08 03:58:03;;;;;;;14.15;10.90;;;13.50;99.90;;;;;;5031518;28;20080;-64
2023/05/08 04:00:52;;;;;;;16.77;10.23;;;13.50;99.90;;;;;;5027402;28;20043;-66
2023/05/08 04:03:59;;;;;;;13.15;9.75;;;13.50;99.90;;;;;;5028029;28;20036;-66
2023/05/08 04:07:02;;;;;;;13.05;9.50;;;13.50;99.90;;;;;;5007171;28;20106;-67
2023/05/08 04:10:09;;;;;;;13.65;9.93;;;13.40;99.90;;;;;;5021302;28;20035;-67
2023/05/08 04:12:51;;;;;;;15.05;9.82;;;13.50;99.90;;;;;;5018575;28;20029;-67
2023/05/08 04:15:20;;;;;;;17.17;10.15;;;13.50;99.90;;;;;;5028762;28;20028;-66
2023/05/08 04:18:11;;;;;;;15.93;10.80;;;13.40;99.90;;;;;;5024409;28;20480;-67
2023/05/08 04:20:40;;;;;;;16.80;9.90;;;13.40;99.90;;;;;;5022972;28;20384;-67
2023/05/08 04:23:07;;;;;;;16.25;10.57;;;13.40;99.90;;;;;;5018811;28;20491;-71
2023/05/08 04:25:36;;;;;;;13.23;9.27;;;13.30;99.90;;;;;;5025260;28;20029;-66
2023/05/08 04:28:02;;;;;;;12.93;9.13;;;13.30;99.90;;;;;;5028099;28;20187;-66
2023/05/08 04:30:28;;;;;;;13.85;10.05;;;13.20;99.90;;;;;;5020576;28;20494;-66
2023/05/08 04:32:55;;;;;;;14.95;10.77;;;13.20;99.90;;;;;;5019574;28;20036;-65
2023/05/08 04:35:21;;;;;;;15.13;11.13;;;13.20;99.90;;;;;;5030450;28;20487;-67
2023/05/08 04:37:47;;;;;;;14.07;10.40;;;13.20;99.90;;;;;;5029743;28;20037;-67
2023/05/08 04:40:12;;;;;;;15.90;10.25;;;13.10;99.90;;;;;;5025008;28;20503;-67
2023/05/08 04:42:41;;;;;;;14.13;9.68;;;13.20;99.90;;;;;;5016573;28;20025;-66
2023/05/08 04:45:08;;;;;;;14.90;10.73;;;13.10;99.90;;;;;;5032426;28;20033;-66
2023/05/08 04:47:33;;;;;;;15.50;10.68;;;13.10;99.90;;;;;;5026778;28;20064;-66
2023/05/08 04:49:59;;;;;;;16.45;11.63;;;13.10;99.90;;;;;;5028987;28;20103;-65
2023/05/08 04:52:25;;;;;;;15.52;10.70;;;13.10;99.90;;;;;;5029079;28;20108;-66
2023/05/08 04:54:50;;;;;;;20.10;11.27;;;13.10;99.90;;;;;;5016736;28;20450;-67
2023/05/08 04:57:16;;;;;;;14.88;10.63;;;13.10;99.90;;;;;;5004903;28;20060;-65
2023/05/08 04:59:41;;;;;;;15.48;11.43;;;13.10;99.90;;;;;;5020673;28;20108;-67
2023/05/08 05:02:07;;;;;;;17.38;11.10;;;13.00;99.90;;;;;;5026893;28;20029;-66
2023/05/08 05:04:35;;;;;;;19.58;11.88;;;13.00;99.90;;;;;;5024811;28;20076;-67
2023/05/08 05:07:01;;;;;;;15.60;10.52;;;13.00;99.90;;;;;;5027412;28;20491;-67
2023/05/08 05:09:27;;;;;;;17.67;10.32;;;13.00;99.90;;;;;;5019803;28;20479;-68
2023/05/08 05:11:52;;;;;;;16.30;10.88;;;13.00;99.90;;;;;;5016631;28;20037;-67
2023/05/08 05:14:18;;;;;;;15.57;11.15;;;13.00;99.90;;;;;;5015610;28;20479;-66
2023/05/08 05:16:44;;;;;;;15.20;11.02;;;13.00;99.90;;;;;;5029023;28;20034;-65
2023/05/08 05:19:10;;;;;;;15.63;10.85;;;13.00;99.90;;;;;;5006915;28;20387;-66
2023/05/08 05:21:36;;;;;;;17.58;11.90;;;13.00;99.90;;;;;;5019177;28;20045;-68
2023/05/08 05:24:03;;;;;;;14.77;11.05;;;13.10;99.90;;;;;;5027762;28;20025;-69
2023/05/08 05:26:29;;;;;;;13.75;9.52;;;13.10;99.90;;;;;;5022041;28;20087;-68
2023/05/08 05:28:54;;;;;;;17.15;11.50;;;13.10;99.90;;;;;;5023440;28;20431;-68
2023/05/08 05:31:20;;;;;;;13.10;9.60;;;13.20;99.90;;;;;;5026437;28;20117;-68
2023/05/08 05:33:45;;;;;;;17.33;10.88;;;13.20;99.90;;;;;;5027757;28;20063;-67
2023/05/08 05:36:11;;;;;;;14.85;10.23;;;13.30;99.90;;;;;;5025090;28;20025;-68
2023/05/08 05:38:37;;;;;;;14.68;9.57;;;13.30;99.90;;;;;;5023860;28;20037;-68
2023/05/08 05:41:02;;;;;;;13.07;9.23;;;13.30;99.90;;;;;;5028949;28;20060;-68
2023/05/08 05:43:28;;;;;;;13.15;8.90;;;13.40;99.90;;;;;;5029811;28;20479;-67
2023/05/08 05:45:55;;;;;;;11.80;9.48;;;13.40;99.90;;;;;;5026313;28;20040;-66
2023/05/08 05:48:20;;;;;;;13.95;9.20;;;13.50;99.90;;;;;;5029101;28;20056;-68
2023/05/08 05:50:46;;;;;;;12.90;9.40;;;13.50;99.90;;;;;;5029440;28;20398;-68
2023/05/08 05:53:12;;;;;;;13.13;9.75;;;13.50;99.90;;;;;;5022053;28;20029;-69
2023/05/08 05:55:37;;;;;;;15.95;11.00;;;13.60;99.90;;;;;;5023493;28;20090;-67
2023/05/08 05:58:03;;;;;;;13.77;9.70;;;13.70;99.90;;;;;;5010608;28;20400;-67
2023/05/08 06:00:32;;;;;;;16.13;10.02;;;13.60;99.90;;;;;;5029030;28;20026;-68
2023/05/08 06:02:57;;;;;;;18.63;9.65;;;13.80;99.90;;;;;;5024322;28;20032;-67
2023/05/08 06:05:23;;;;;;;12.82;9.10;;;13.80;99.90;;;;;;5027699;28;20631;-68
2023/05/08 06:07:49;;;;;;;13.68;9.80;;;13.80;99.90;;;;;;5029955;28;20029;-68
2023/05/08 06:10:14;;;;;;;12.52;9.18;;;13.80;99.90;;;;;;5028106;28;20144;-67
2023/05/08 06:12:40;;;;;;;13.88;8.40;;;13.90;99.90;;;;;;5027107;28;20064;-67
2023/05/08 06:15:06;;;;;;;13.10;8.82;;;13.90;99.90;;;;;;5026921;28;20029;-65
2023/05/08 06:17:32;;;;;;;10.80;8.35;;;13.90;99.90;;;;;;5028814;28;20021;-68
2023/05/08 06:19:58;;;;;;;12.43;9.07;;;14.00;99.90;;;;;;5024973;28;20073;-67
2023/05/08 06:22:24;;;;;;;14.65;9.90;;;14.10;99.90;;;;;;5026473;28;20105;-67
2023/05/08 06:24:52;;;;;;;12.20;8.65;;;14.00;99.90;;;;;;5027678;28;20034;-68
2023/05/08 06:27:19;;;;;;;13.45;9.18;;;14.00;99.90;;;;;;5029466;28;20434;-69
2023/05/08 06:29:46;;;;;;;13.57;10.57;;;13.90;99.90;;;;;;5022812;28;20507;-67
2023/05/08 06:32:12;;;;;;;14.57;11.07;;;14.00;99.90;;;;;;5026830;28;20048;-69
2023/05/08 06:34:37;;;;;;;19.75;9.85;;;13.90;99.90;;;;;;5022270;28;20097;-67
2023/05/08 06:37:03;;;;;;;10.85;8.10;;;14.00;99.90;;;;;;5029374;28;20388;-68
2023/05/08 06:39:29;;;;;;;12.18;8.95;;;14.10;99.90;;;;;;5020416;28;20368;-66
2023/05/08 06:41:54;;;;;;;11.95;9.07;;;14.20;99.90;;;;;;5028320;28;20041;-68
2023/05/08 06:44:20;;;;;;;12.98;9.43;;;14.20;99.90;;;;;;5027900;28;20068;-69
2023/05/08 06:46:45;;;;;;;13.90;9.43;;;14.20;99.90;;;;;;5022697;22;20735;-64
2023/05/08 06:49:11;;;;;;;12.30;8.90;;;14.20;99.90;;;;;;4989396;28;20481;-65
2023/05/08 06:51:38;;;;;;;12.10;9.30;;;14.30;99.90;;;;;;4963513;28;20424;-65
2023/05/08 06:54:07;;;;;;;11.95;9.68;;;14.30;99.90;;;;;;4986059;28;20498;-65
2023/05/08 06:56:34;;;;;;;12.32;9.35;;;14.20;99.90;;;;;;4975970;28;20031;-65
2023/05/08 06:58:59;;;;;;;14.00;9.45;;;14.30;99.90;;;;;;4974727;28;20026;-65
2023/05/08 07:01:25;;;;;;;11.27;9.10;;;14.20;99.90;;;;;;4994619;28;20370;-62
2023/05/08 07:03:51;;;;;;;16.60;9.23;;;14.30;99.90;;;;;;4975957;28;20073;-65
2023/05/08 07:06:16;;;;;;;11.27;8.38;;;14.20;99.90;;;;;;4991834;28;20050;-64
2023/05/08 07:08:42;;;;;;;11.20;9.32;;;14.20;99.90;;;;;;4991834;28;20026;-62
2023/05/08 07:11:08;;;;;;;11.57;8.60;;;14.30;99.90;;;;;;4993703;28;20504;-64
2023/05/08 07:13:34;;;;;;;11.80;8.55;;;14.30;99.90;;;;;;4991015;28;20516;-64
2023/05/08 07:16:00;;;;;;;15.75;9.43;;;14.30;99.90;;;;;;4992741;28;20077;-65
2023/05/08 07:18:26;;;;;;;9.25;7.80;;;14.40;99.90;;;;;;4992540;28;20464;-64
2023/05/08 07:20:52;;;;;;;12.43;8.82;;;14.60;99.90;;;;;;4974584;28;20089;-65
2023/05/08 07:23:17;;;;;;;12.57;9.18;;;14.60;99.90;;;;;;4991846;28;20373;-65
2023/05/08 07:25:43;;;;;;;12.18;9.13;;;14.60;99.90;;;;;;4989840;28;20408;-66
2023/05/08 07:28:09;;;;;;;10.63;8.70;;;14.70;99.90;;;;;;4973985;28;20026;-65
2023/05/08 07:30:35;;;;;;;10.45;8.25;;;14.70;99.90;;;;;;4994184;28;20540;-65
2023/05/08 07:33:00;;;;;;;13.82;9.45;;;14.70;99.90;;;;;;4990027;28;20028;-65
2023/05/08 07:35:28;;;;;;;12.25;8.27;;;14.90;99.90;;;;;;4995140;28;20030;-65
2023/05/08 07:37:53;;;;;;;11.40;9.15;;;15.00;99.90;;;;;;4990997;28;20056;-65
2023/05/08 07:40:19;;;;;;;9.65;7.78;;;15.20;99.90;;;;;;4990839;28;20031;-65
2023/05/08 07:42:45;;;;;;;11.80;8.70;;;15.20;99.90;;;;;;4992405;28;20380;-66
2023/05/08 07:45:12;;;;;;;16.27;9.85;;;15.30;99.90;;;;;;4976080;28;20033;-65
2023/05/08 07:47:38;;;;;;;11.82;8.77;;;15.40;99.90;;;;;;4990276;28;20120;-64
2023/05/08 07:50:04;;;;;;;10.48;8.40;;;15.60;99.90;;;;;;4993115;28;20026;-65
2023/05/08 07:52:30;;;;;;;9.52;7.88;;;15.80;99.90;;;;;;4993169;28;20034;-65
2023/05/08 07:54:57;;;;;;;11.35;7.63;;;16.00;99.90;;;;;;4992274;28;20030;-65
2023/05/08 07:57:23;;;;;;;9.85;7.68;;;16.10;99.90;;;;;;4972998;28;20582;-65
2023/05/08 07:59:48;;;;;;;12.80;8.30;;;16.10;99.90;;;;;;4992964;28;20632;-65
2023/05/08 08:02:14;;;;;;;16.48;10.23;;;16.10;99.90;;;;;;4994630;28;20034;-64
2023/05/08 08:04:39;;;;;;;13.23;10.77;;;16.10;99.90;;;;;;4990008;28;20093;-64
2023/05/08 08:07:05;;;;;;;18.98;12.48;;;16.30;99.90;;;;;;4989889;28;20042;-66
2023/05/08 08:09:31;;;;;;;11.85;9.30;;;16.30;99.90;;;;;;4993020;28;20030;-64
2023/05/08 08:11:57;;;;;;;13.20;8.82;;;16.50;99.90;;;;;;4993464;28;20104;-65
2023/05/08 08:14:22;;;;;;;10.60;7.95;;;16.60;99.90;;;;;;4991567;28;20037;-64
2023/05/08 08:16:48;;;;;;;12.02;8.88;;;16.60;99.90;;;;;;4991193;28;20231;-65
2023/05/08 08:19:13;;;;;;;11.82;8.57;;;16.60;99.90;;;;;;4991026;28;20057;-65
2023/05/08 08:21:42;;;;;;;11.50;8.25;;;16.50;99.90;;;;;;4987896;28;20096;-65
2023/05/08 08:24:08;;;;;;;8.75;7.22;;;16.70;99.90;;;;;;4990955;28;20053;-65
2023/05/08 08:26:34;;;;;;;10.07;7.20;;;16.80;99.90;;;;;;4988926;28;20085;-65
2023/05/08 08:29:00;;;;;;;9.18;7.53;;;16.60;99.90;;;;;;4990373;28;20062;-65
2023/05/08 08:31:26;;;;;;;15.43;7.95;;;16.40;99.90;;;;;;4992115;28;20033;-64
2023/05/08 08:33:52;;;;;;;7.15;6.40;;;16.50;99.90;;;;;;4989651;28;20113;-64
2023/05/08 08:36:18;;;;;;;11.43;7.20;;;16.60;99.90;;;;;;4992176;28;20049;-65
2023/05/08 08:38:43;;;;;;;8.27;7.25;;;16.60;99.90;;;;;;4988647;28;20504;-64
2023/05/08 08:41:13;;;;;;;8.70;6.97;;;16.50;99.90;;;;;;4984328;28;20424;-65
2023/05/08 08:43:42;;;;;;;9.35;7.68;;;16.60;99.90;;;;;;4995766;28;20193;-65
2023/05/08 08:46:11;;;;;;;11.20;7.60;;;16.80;99.90;;;;;;4989821;28;20026;-65
2023/05/08 08:48:42;;;;;;;9.40;6.47;;;16.90;99.90;;;;;;4989700;28;20101;-65
2023/05/08 08:51:21;;;;;;;9.43;6.55;;;17.10;99.90;;;;;;4987466;28;20034;-65
2023/05/08 08:53:49;;;;;;;10.95;7.35;;;17.00;99.90;;;;;;4990629;28;20099;-65
2023/05/08 08:56:16;;;;;;;9.18;6.20;;;17.00;99.90;;;;;;4987625;28;20022;-65
2023/05/08 08:58:53;;;;;;;8.63;7.05;;;17.20;99.90;;;;;;4970741;28;20053;-65
2023/05/08 09:01:20;;;;;;;7.75;6.03;;;17.20;99.90;;;;;;4991186;28;20030;-64
2023/05/08 09:03:47;;;;;;;9.65;7.05;;;17.10;99.90;;;;;;4992702;28;20384;-65
2023/05/08 09:06:13;;;;;;;8.20;6.63;;;17.10;99.90;;;;;;4990485;28;20499;-64
2023/05/08 09:08:40;;;;;;;15.63;9.02;;;17.10;99.90;;;;;;4988868;28;20030;-65
2023/05/08 09:11:06;;;;;;;11.82;8.18;;;16.90;99.90;;;;;;4990841;28;20061;-65
2023/05/08 09:13:31;;;;;;;12.40;8.02;;;16.80;99.90;;;;;;4989536;28;20050;-64
2023/05/08 09:15:58;;;;;;;10.45;7.28;;;16.80;99.90;;;;;;4990504;28;20030;-64
2023/05/08 09:18:24;;;;;;;7.60;6.43;;;16.80;99.90;;;;;;4988453;28;20080;-65
2023/05/08 09:20:50;;;;;;;7.95;6.38;;;16.80;99.90;;;;;;4987800;28;20026;-65
2023/05/08 09:23:16;;;;;;;10.32;7.90;;;16.80;99.90;;;;;;4989384;28;20027;-65
2023/05/08 09:25:51;;;;;;;14.25;8.73;;;16.60;99.90;;;;;;4991917;28;20479;-64
2023/05/08 09:28:21;;;;;;;12.98;7.95;;;16.60;99.90;;;;;;4987969;28;20027;-65
2023/05/08 09:30:58;;;;;;;9.15;7.30;;;16.60;99.90;;;;;;4987716;28;20053;-64
2023/05/08 09:33:26;;;;;;;10.75;7.28;;;16.50;99.90;;;;;;4985348;28;20416;-65
2023/05/08 09:35:52;;;;;;;13.10;8.60;;;16.40;99.90;;;;;;4971625;28;20030;-65
2023/05/08 09:38:36;;;;;;;10.05;7.00;;;16.40;99.90;;;;;;4988712;28;20038;-65
2023/05/08 09:41:29;;;;;;;10.95;7.68;;;16.50;99.90;;;;;;4984602;28;20543;-64
2023/05/08 09:44:06;;;;;;;10.00;7.15;;;16.50;99.90;;;;;;4983232;28;20591;-65
2023/05/08 09:46:33;;;;;;;9.82;7.50;;;16.70;99.90;;;;;;4985222;28;20022;-65
2023/05/08 09:49:00;;;;;;;11.60;7.15;;;16.70;99.90;;;;;;4985358;28;20069;-65
2023/05/08 09:51:28;;;;;;;9.68;7.45;;;16.60;99.90;;;;;;4985928;28;20046;-63
2023/05/08 09:53:56;;;;;;;11.05;7.32;;;16.40;99.90;;;;;;4988870;28;20044;-65
2023/05/08 09:56:33;;;;;;;8.32;6.85;;;16.40;99.90;;;;;;4984177;28;20506;-64
2023/05/08 09:59:00;;;;;;;11.00;8.18;;;16.40;99.90;;;;;;4970032;28;20090;-65
2023/05/08 10:01:29;;;;;;;9.30;7.00;;;16.40;99.90;;;;;;4986569;28;20019;-65
2023/05/08 10:03:54;;;;;;;12.07;7.93;;;16.80;99.90;;;;;;4984638;28;20137;-65
2023/05/08 10:06:20;;;;;;;9.25;7.25;;;16.80;99.90;;;;;;4984969;28;20452;-65
2023/05/08 10:08:47;;;;;;;10.77;7.38;;;16.80;99.90;;;;;;4983470;28;20097;-65
2023/05/08 10:11:17;;;;;;;68.28;41.33;;;16.70;99.90;;;;;;4986028;28;20546;-65
2023/05/08 10:13:43;;;;;;;12.75;8.35;;;16.80;99.90;;;;;;4990124;28;20060;-64
2023/05/08 10:16:17;;;;;;;9.82;6.95;;;16.90;99.90;;;;;;4980478;28;20034;-63
2023/05/08 10:18:48;;;;;;;19.02;13.55;;;16.80;99.90;;;;;;4990063;28;20137;-64
2023/05/08 10:21:14;;;;;;;11.95;9.15;;;16.80;99.90;;;;;;4983257;28;20035;-65
2023/05/08 10:23:45;;;;;;;9.30;6.97;;;16.60;99.90;;;;;;4988521;28;20022;-64
2023/05/08 10:26:15;;;;;;;9.75;7.07;;;16.60;99.90;;;;;;4994722;28;20112;-65
2023/05/08 10:28:40;;;;;;;9.88;7.68;;;16.40;99.90;;;;;;4991588;28;20072;-65
2023/05/08 10:31:08;;;;;;;12.15;9.32;;;16.30;99.90;;;;;;4993322;28;20678;-65
2023/05/08 10:33:39;;;;;;;11.20;8.73;;;16.20;99.90;;;;;;4990285;28;20152;-65
2023/05/08 10:36:05;;;;;;;20.63;10.32;;;16.10;99.90;;;;;;4990846;28;20022;-65
2023/05/08 10:38:32;;;;;;;16.27;11.82;;;16.10;99.90;;;;;;4988876;28;20388;-64
2023/05/08 10:41:01;;;;;;;11.68;8.20;;;16.00;99.90;;;;;;4990382;28;20069;-65
2023/05/08 10:43:28;;;;;;;12.43;9.27;;;15.90;99.90;;;;;;4987501;28;20113;-64
2023/05/08 10:45:55;;;;;;;14.35;10.73;;;15.90;99.90;;;;;;4991326;28;20022;-64
2023/05/08 10:48:25;;;;;;;14.65;9.88;;;15.80;99.90;;;;;;4992907;28;20026;-65
2023/05/08 10:51:02;;;;;;;13.43;8.77;;;15.80;99.90;;;;;;4992682;28;20496;-64
2023/05/08 10:53:34;;;;;;;13.43;10.50;;;15.60;99.90;;;;;;4987293;28;20073;-65
2023/05/08 10:56:00;;;;;;;23.67;16.43;;;15.70;99.90;;;;;;4994333;28;20570;-65
2023/05/08 10:58:31;;;;;;;22.83;17.08;;;15.70;99.90;;;;;;4973118;28;20074;-65
2023/05/08 11:01:01;;;;;;;28.08;18.83;;;15.50;99.90;;;;;;4987177;28;20405;-66
2023/05/08 11:03:29;;;;;;;11.77;8.25;;;15.50;99.90;;;;;;4991821;28;20383;-65
2023/05/08 11:05:56;;;;;;;10.27;7.80;;;15.70;99.90;;;;;;4988349;28;20019;-65
2023/05/08 11:08:23;;;;;;;13.07;8.35;;;15.80;99.90;;;;;;4992944;28;20037;-65
2023/05/08 11:11:28;;;;;;;10.35;8.70;;;15.80;99.90;;;;;;4990476;28;20046;-64
2023/05/08 11:14:07;;;;;;;86.28;48.63;;;15.80;99.90;;;;;;4988557;28;20053;-64
2023/05/08 11:16:58;;;;;;;12.30;9.02;;;15.80;99.90;;;;;;4994132;28;20074;-65
2023/05/08 11:19:25;;;;;;;9.65;8.15;;;15.90;99.90;;;;;;4987472;28;20025;-65
2023/05/08 11:22:18;;;;;;;12.35;8.38;;;16.00;99.90;;;;;;4993021;28;20482;-64
2023/05/08 11:24:49;;;;;;;11.93;8.77;;;16.00;99.90;;;;;;4987754;28;20565;-65
2023/05/08 11:27:15;;;;;;;10.05;8.52;;;16.00;99.90;;;;;;4993709;28;20081;-65
2023/05/08 11:29:41;;;;;;;11.63;9.35;;;15.80;99.90;;;;;;4990693;28;20026;-65
2023/05/08 11:32:07;;;;;;;10.10;8.00;;;15.90;99.90;;;;;;4993476;28;20027;-65
2023/05/08 11:34:42;;;;;;;11.90;8.23;;;16.00;99.90;;;;;;4997277;28;20042;-65
2023/05/08 11:37:15;;;;;;;12.18;9.07;;;16.10;99.90;;;;;;4992421;28;20057;-64
2023/05/08 11:39:40;;;;;;;12.05;8.45;;;16.10;99.90;;;;;;4989185;28;20026;-65
2023/05/08 11:42:25;;;;;;;9.98;8.27;;;16.20;99.90;;;;;;4991736;28;20096;-64
2023/05/08 11:45:21;;;;;;;13.25;8.35;;;16.40;99.90;;;;;;4991015;28;20022;-65
2023/05/08 11:47:46;;;;;;;10.50;7.88;;;16.60;99.90;;;;;;4980174;28;20065;-65
2023/05/08 11:50:12;;;;;;;9.93;8.30;;;16.70;99.90;;;;;;4989475;28;20477;-65
2023/05/08 11:52:40;;;;;;;10.88;7.25;;;16.80;99.90;;;;;;4992669;28;20054;-66
2023/05/08 11:55:08;;;;;;;16.20;8.75;;;16.90;99.90;;;;;;4990300;28;20042;-65
2023/05/08 11:57:34;;;;;;;10.43;8.05;;;17.10;99.90;;;;;;4984479;28;20043;-65
2023/05/08 12:00:10;;;;;;;10.07;8.13;;;17.20;99.90;;;;;;4973241;28;20061;-65
2023/05/08 12:02:37;;;;;;;10.43;7.55;;;17.40;99.90;;;;;;4989612;28;20029;-65
2023/05/08 12:05:02;;;;;;;8.85;6.80;;;17.50;99.90;;;;;;4991625;28;20031;-65
2023/05/08 12:07:28;;;;;;;10.18;6.95;;;17.60;99.90;;;;;;4992048;28;20106;-65
2023/05/08 12:09:55;;;;;;;10.93;7.28;;;17.80;99.90;;;;;;4990985;28;20121;-64
2023/05/08 12:12:21;;;;;;;13.60;7.15;;;18.00;99.90;;;;;;4987972;28;20090;-65
2023/05/08 12:14:50;;;;;;;8.75;6.22;;;18.10;99.90;;;;;;4991350;28;20385;-65
2023/05/08 12:17:17;;;;;;;7.57;6.53;;;18.50;99.90;;;;;;4991478;28;20567;-65
2023/05/08 12:19:43;;;;;;;9.32;6.97;;;18.80;99.90;;;;;;4990011;28;20027;-64
2023/05/08 12:22:09;;;;;;;8.65;7.38;;;19.10;99.90;;;;;;4988799;28;20373;-65
2023/05/08 12:24:34;;;;;;;9.88;7.32;;;19.00;99.90;;;;;;4993405;28;20033;-65
2023/05/08 12:27:00;;;;;;;13.27;8.10;;;18.70;99.90;;;;;;4989370;28;20133;-65
2023/05/08 12:29:26;;;;;;;9.82;7.07;;;18.90;99.90;;;;;;4986913;28;20031;-64
2023/05/08 12:31:52;;;;;;;7.18;5.97;;;18.80;99.90;;;;;;4988971;28;20038;-65
2023/05/08 12:34:18;;;;;;;16.92;10.18;;;18.90;99.90;;;;;;4990592;28;20428;-65
2023/05/08 12:36:44;;;;;;;9.07;6.05;;;18.60;99.90;;;;;;4987902;28;20034;-64
2023/05/08 12:39:14;;;;;;;9.98;7.60;;;18.50;99.90;;;;;;4985852;28;20088;-65
2023/05/08 12:41:51;;;;;;;7.80;6.63;;;18.50;99.90;;;;;;4987979;28;20092;-65
2023/05/08 12:44:22;;;;;;;11.07;6.70;;;18.40;99.90;;;;;;4984343;28;20030;-62
2023/05/08 12:46:52;;;;;;;9.70;6.75;;;18.40;99.90;;;;;;4967646;28;20076;-61
2023/05/08 12:49:31;;;;;;;10.45;7.53;;;18.40;99.90;;;;;;4991141;28;20365;-62